Have a Safe July 4th! 

Flight Track Log - Related Links

Times and Time Zones

All times are in EST time to prevent confusion due to time zone crossing. See the GLO1769 flight status page for this flight to view local times or setup timezone preferences in your user account.

Time Position Orientation Groundspeed Altitude Reporting Facility
EST Latitude Longitude Course Direction KTS MPH feet Rate Location/Type
Fri 01:34:43 PM -5.0540 -42.8270 315° West 115 132  Level FlightAware ADS-B
Fri 01:35:28 PM -5.0870 -42.8240 175° South 165 190 1,700 1,807 Climbing FlightAware ADS-B
Fri 01:36:06 PM -5.1190 -42.8350 199° South 225 259 2,500 1,975 Climbing FlightAware ADS-B
Fri 01:36:47 PM -5.1570 -42.8550 208° Southwest 232 267 4,300 2,364 Climbing FlightAware ADS-B
Fri 01:37:12 PM -5.1830 -42.8670 205° Southwest 256 295 5,100 2,476 Climbing FlightAware ADS-B
Fri 01:37:50 PM -5.2260 -42.8870 205° Southwest 266 306 6,900 2,687 Climbing FlightAware ADS-B
Fri 01:38:19 PM -5.2570 -42.9040 209° Southwest 283 326 8,100 2,583 Climbing FlightAware ADS-B
Fri 01:39:02 PM -5.3100 -42.9290 205° Southwest 300 345 10,000 2,720 Climbing FlightAware ADS-B
Fri 01:39:34 PM -5.3520 -42.9510 208° Southwest 317 365 11,500 2,750 Climbing FlightAware ADS-B
Fri 01:40:14 PM -5.4070 -42.9780 206° Southwest 337 388 13,300 2,829 Climbing FlightAware ADS-B
Fri 01:40:44 PM -5.4480 -42.9990 207° Southwest 345 397 14,800 3,000 Climbing FlightAware ADS-B
Fri 01:41:20 PM -5.5020 -43.0260 206° Southwest 352 405 16,600 2,842 Climbing FlightAware ADS-B
Fri 01:42:00 PM -5.5600 -43.0560 207° Southwest 367 422 18,400 2,667 Climbing FlightAware ADS-B
Fri 01:42:32 PM -5.6090 -43.0810 207° Southwest 375 432 19,800 2,500 Climbing FlightAware ADS-B
Fri 01:43:00 PM -5.6540 -43.1040 207° Southwest 383 441 20,900 2,400 Climbing FlightAware ADS-B
Fri 01:43:42 PM -5.7230 -43.1370 205° Southwest 393 452 22,600 2,333 Climbing FlightAware ADS-B
Fri 01:44:12 PM -5.7730 -43.1600 205° Southwest 404 465 23,700 2,280 Climbing FlightAware ADS-B
Fri 01:45:22 PM -5.8940 -43.2160 205° Southwest 417 480 26,400 2,483 Climbing FlightAware ADS-B
Fri 01:46:08 PM -5.9720 -43.2530 205° Southwest 409 471 28,500 2,681 Climbing FlightAware ADS-B
Fri 01:46:56 PM -6.0560 -43.2920 205° Southwest 403 464 30,600 2,533 Climbing FlightAware ADS-B
Fri 01:47:38 PM -6.1260 -43.3250 205° Southwest 396 456 32,300 2,400 Climbing FlightAware ADS-B
Fri 01:48:01 PM -6.1610 -43.3410 204° Southwest 392 451 33,200 2,526 Climbing FlightAware ADS-B
Fri 01:48:54 PM -6.2490 -43.3820 205° Southwest 371 427 35,500 2,168 Climbing FlightAware ADS-B
Fri 01:50:00 PM -6.3500 -43.4300 205° Southwest 356 410 37,500 1,190 Climbing FlightAware ADS-B
Fri 01:51:00 PM -6.4410 -43.4720 205° Southwest 374 430 38,000 313 Climbing FlightAware ADS-B
Fri 01:51:36 PM -6.5000 -43.5000 205° Southwest 390 449 38,000  Level FlightAware ADS-B
Fri 01:52:12 PM -6.5600 -43.5280 205° Southwest 404 465 38,000  Level FlightAware ADS-B
Fri 01:52:46 PM -6.6180 -43.5550 205° Southwest 412 474 38,000  Level FlightAware ADS-B
Fri 01:54:06 PM -6.7570 -43.6200 205° Southwest 412 474 38,000  Level FlightAware ADS-B
Fri 01:54:40 PM -6.8140 -43.6470 205° Southwest 412 474 38,000  Level FlightAware ADS-B
Fri 01:55:18 PM -6.8800 -43.6780 205° Southwest 412 474 38,000  Level FlightAware ADS-B
Fri 01:55:48 PM -6.9330 -43.7030 205° Southwest 412 474 38,000  Level FlightAware ADS-B
Fri 01:57:06 PM -7.0670 -43.7660 205° Southwest 400 460 38,000  Level FlightAware ADS-B
Fri 01:57:38 PM -7.1210 -43.7920 206° Southwest 400 460 38,000  Level FlightAware ADS-B
Fri 01:58:10 PM -7.1740 -43.8160 204° Southwest 399 459 38,000  Level FlightAware ADS-B
Fri 01:58:48 PM -7.2370 -43.8460 205° Southwest 397 457 38,000  Level FlightAware ADS-B
Fri 01:58:58 PM -7.2530 -43.8540 206° Southwest 397 457 38,000  Level FlightAware ADS-B
Fri 01:59:53 PM -7.3450 -43.8970 205° Southwest 396 456 38,000  Level FlightAware ADS-B
Fri 02:00:32 PM -7.4100 -43.9270 205° Southwest 395 455 38,000  Level FlightAware ADS-B
Fri 02:01:05 PM -7.4660 -43.9540 206° Southwest 396 456 38,000  Level FlightAware ADS-B
Fri 02:01:52 PM -7.5430 -43.9900 205° Southwest 396 456 38,000  Level FlightAware ADS-B
Fri 02:02:31 PM -7.5980 -44.0160 205° Southwest 396 456 38,000  Level FlightAware ADS-B
Fri 02:03:05 PM -7.6460 -44.0380 204° Southwest 396 456 38,000  Level FlightAware ADS-B
Fri 02:03:46 PM -7.7410 -44.0830 205° Southwest 415 478 38,000  Level FlightAware ADS-B
Fri 02:04:20 PM -7.8000 -44.1110 205° Southwest 414 476 38,000  Level FlightAware ADS-B
Fri 02:05:27 PM -7.9000 -44.1580 205° Southwest 414 476 38,000  Level FlightAware ADS-B
Fri 02:06:02 PM -7.9770 -44.1950 205° Southwest 411 473 38,000  Level FlightAware ADS-B
Fri 02:07:04 PM -8.0830 -44.2450 205° Southwest 410 472 38,000  Level FlightAware ADS-B
Fri 02:07:40 PM -8.1450 -44.2740 205° Southwest 410 472 38,000  Level FlightAware ADS-B
Fri 02:08:09 PM -8.1860 -44.2930 205° Southwest 410 472 38,000  Level FlightAware ADS-B
Fri 02:09:09 PM -8.2740 -44.3340 205° Southwest 410 472 38,000  Level FlightAware ADS-B
Fri 02:09:53 PM -8.3620 -44.3760 205° Southwest 405 466 38,000 56 Level FlightAware ADS-B
Fri 02:10:56 PM -8.4800 -44.4320 205° Southwest 404 465 38,100 105 Climbing FlightAware ADS-B
Fri 02:11:47 PM -8.5540 -44.4670 205° Southwest 404 465 38,200 675 Climbing FlightAware ADS-B
Fri 02:12:16 PM -8.6150 -44.4960 205° Southwest 405 466 39,000 842 Climbing FlightAware ADS-B
Fri 02:12:44 PM -8.6560 -44.5150 205° Southwest 405 466 39,000  Level FlightAware ADS-B
Fri 02:13:56 PM -8.7600 -44.5640 205° Southwest 405 466 39,000  Level FlightAware ADS-B
Fri 02:14:32 PM -8.8120 -44.5880 205° Southwest 405 466 39,000  Level FlightAware ADS-B
Fri 02:15:33 PM -8.9000 -44.6300 205° Southwest 405 466 39,000  Level FlightAware ADS-B
Fri 02:16:09 PM -8.9520 -44.6540 205° Southwest 405 466 39,000  Level FlightAware ADS-B
Fri 02:17:10 PM -9.0400 -44.6960 205° Southwest 405 466 39,000  Level FlightAware ADS-B
Fri 02:18:08 PM -9.1230 -44.7350 205° Southwest 405 466 39,000  Level FlightAware ADS-B
Fri 02:18:32 PM -9.1580 -44.7520 206° Southwest 405 466 39,000  Level FlightAware ADS-B
Fri 02:19:21 PM -9.2290 -44.7850 205° Southwest 405 466 39,000  Level FlightAware ADS-B
Fri 02:20:09 PM -9.2980 -44.8180 205° Southwest 405 466 39,000  Level FlightAware ADS-B
Fri 02:21:10 PM -9.3860 -44.8600 205° Southwest 405 466 39,000  Level FlightAware ADS-B
Fri 02:21:47 PM -9.4400 -44.8850 205° Southwest 405 466 39,000  Level FlightAware ADS-B
Fri 02:22:11 PM -9.4740 -44.9010 205° Southwest 405 466 39,000 41 Level FlightAware ADS-B
Fri 02:25:00 PM -9.7953 -45.0488 204° Southwest  Level Estimated
Fri 02:26:00 PM -9.9093 -45.1013 204° Southwest  Level Estimated
Fri 02:27:00 PM -10.0234 -45.1539 204° Southwest  Level Estimated
Fri 02:28:00 PM -10.1374 -45.2066 204° Southwest  Level Estimated
Fri 02:29:00 PM -10.2514 -45.2592 204° Southwest  Level Estimated
Fri 02:30:00 PM -10.3654 -45.3119 204° Southwest  Level Estimated
Fri 02:31:00 PM -10.4795 -45.3646 204° Southwest  Level Estimated
Fri 02:32:00 PM -10.5934 -45.4174 204° Southwest  Level Estimated
Fri 02:33:00 PM -10.7074 -45.4702 204° Southwest  Level Estimated
Fri 02:34:00 PM -10.8214 -45.5231 204° Southwest  Level Estimated
Fri 02:35:00 PM -10.9354 -45.5760 204° Southwest  Level Estimated
Fri 02:36:00 PM -11.0493 -45.6289 205° Southwest  Level Estimated
Fri 02:37:00 PM -11.1633 -45.6819 205° Southwest  Level Estimated
Fri 02:38:00 PM -11.2772 -45.7349 205° Southwest  Level Estimated
Fri 02:39:00 PM -11.3912 -45.7879 205° Southwest  Level Estimated
Fri 02:40:00 PM -11.5051 -45.8410 205° Southwest  Level Estimated
Fri 02:41:00 PM -11.6190 -45.8941 205° Southwest  Level Estimated
Fri 02:42:00 PM -11.7329 -45.9473 205° Southwest  Level Estimated
Fri 02:43:00 PM -11.8468 -46.0006 205° Southwest  Level Estimated
Fri 02:44:00 PM -11.9607 -46.0538 205° Southwest  Level Estimated
Fri 02:45:00 PM -12.0746 -46.1072 205° Southwest  Level Estimated
Fri 02:45:59 PM -12.0570 -46.1410 205° Southwest 408 470 40,000  Level FlightAware ADS-B
Fri 02:46:00 PM -12.1885 -46.1605 205° Southwest  Level Estimated
Fri 02:46:23 PM -12.0930 -46.1590 206° Southwest 408 470 40,000  Level FlightAware ADS-B
Fri 02:47:01 PM -12.1560 -46.1890 205° Southwest 408 470 40,000  Level FlightAware ADS-B
Fri 02:47:37 PM -12.2080 -46.2140 205° Southwest 408 470 40,000  Level FlightAware ADS-B
Fri 02:48:06 PM -12.2770 -46.2470 205° Southwest 408 470 40,000  Level FlightAware ADS-B
Fri 02:48:43 PM -12.3330 -46.2750 206° Southwest 407 468 40,000  Level FlightAware ADS-B
Fri 02:49:11 PM -12.3730 -46.2940 205° Southwest 407 468 40,000  Level FlightAware ADS-B
Fri 02:49:47 PM -12.4260 -46.3190 205° Southwest 407 468 40,000  Level FlightAware ADS-B
Fri 02:50:46 PM -12.5110 -46.3600 205° Southwest 407 468 40,000  Level FlightAware ADS-B
Fri 02:51:22 PM -12.5630 -46.3850 205° Southwest 407 468 40,000  Level FlightAware ADS-B
Fri 02:51:55 PM -12.6650 -46.4360 206° Southwest 407 468 40,000  Level FlightAware ADS-B
Fri 02:52:10 PM -12.6920 -46.4490 205° Southwest 408 470 40,000  Level FlightAware ADS-B
Fri 02:52:52 PM -12.7570 -46.4810 206° Southwest 407 468 40,000  Level FlightAware ADS-B
Fri 02:53:05 PM -12.7860 -46.4950 205° Southwest 407 468 40,000  Level FlightAware ADS-B
Fri 02:54:09 PM -12.8790 -46.5390 205° Southwest 407 468 40,000  Level FlightAware ADS-B
Fri 02:55:21 PM -12.9830 -46.5890 205° Southwest 407 468 40,000  Level FlightAware ADS-B
Fri 02:55:58 PM -13.0370 -46.6150 205° Southwest 407 468 40,000  Level FlightAware ADS-B
Fri 02:56:34 PM -13.0890 -46.6400 205° Southwest 407 468 40,000  Level FlightAware ADS-B
Fri 02:57:11 PM -13.1430 -46.6660 205° Southwest 407 468 40,000  Level FlightAware ADS-B
Fri 02:57:48 PM -13.1960 -46.6910 205° Southwest 407 468 40,000  Level FlightAware ADS-B
Fri 02:58:25 PM -13.2500 -46.7170 205° Southwest 407 468 40,000  Level FlightAware ADS-B
Fri 02:59:02 PM -13.3040 -46.7430 205° Southwest 407 468 40,000  Level FlightAware ADS-B
Fri 02:59:38 PM -13.3560 -46.7680 205° Southwest 407 468 40,000  Level FlightAware ADS-B
Fri 03:00:15 PM -13.4100 -46.7930 204° Southwest 407 468 40,000  Level FlightAware ADS-B
Fri 03:01:03 PM -13.4790 -46.8270 206° Southwest 407 468 40,000  Level FlightAware ADS-B
Fri 03:01:27 PM -13.5140 -46.8440 205° Southwest 407 468 40,000  Level FlightAware ADS-B
Fri 03:02:15 PM -13.5840 -46.8770 205° Southwest 407 468 40,000  Level FlightAware ADS-B
Fri 03:02:52 PM -13.6370 -46.9030 205° Southwest 407 468 40,000 -1,152 Level FlightAware ADS-B
Fri 03:05:00 PM -13.8819 -47.0130 204° Southwest  Level Estimated
Fri 03:06:00 PM -13.9967 -47.0647 204° Southwest  Level Estimated
Fri 03:07:00 PM -14.1115 -47.1164 204° Southwest  Level Estimated
Fri 03:08:00 PM -14.2262 -47.1681 204° Southwest  Level Estimated
Fri 03:09:00 PM -14.3410 -47.2199 204° Southwest  Level Estimated
Fri 03:10:00 PM -14.4557 -47.2718 204° Southwest  Level Estimated
Fri 03:11:00 PM -14.5704 -47.3237 204° Southwest  Level Estimated
Fri 03:12:00 PM -14.6851 -47.3757 204° Southwest  Level Estimated
Fri 03:13:00 PM -14.7998 -47.4277 204° Southwest  Level Estimated
Fri 03:14:00 PM -14.9145 -47.4798 204° Southwest  Level Estimated
Fri 03:15:00 PM -15.0292 -47.5319 204° Southwest  Level Estimated
Fri 03:16:00 PM -15.1439 -47.5841 204° Southwest  Level Estimated
Fri 03:16:55 PM -15.3070 -47.3550 204° Southwest 359 413 23,100  Level FlightAware ADS-B
Fri 03:17:00 PM -15.2585 -47.6363 204° Southwest  Level Estimated
Fri 03:17:36 PM -15.3380 -47.4060 238° Southwest 359 413 23,000  Level FlightAware ADS-B
Fri 03:18:33 PM -15.3920 -47.4970 238° Southwest 337 388 20,000 -2,354 Descending FlightAware ADS-B
Fri 03:18:55 PM -15.4090 -47.5270 240° Southwest 316 364 19,900 -1,319 Descending FlightAware ADS-B
Fri 03:20:04 PM -15.4600 -47.6110 238° Southwest 311 358 18,000 -1,613 Descending FlightAware ADS-B
Fri 03:20:28 PM -15.4810 -47.6460 238° Southwest 304 350 17,400 -1,500 Descending FlightAware ADS-B
Fri 03:21:04 PM -15.5050 -47.6880 239° Southwest 302 348 16,500 -628 Descending FlightAware ADS-B
Fri 03:21:54 PM -15.5370 -47.7400 237° Southwest 302 348 16,500 -1,274 Level FlightAware ADS-B
Fri 03:22:57 PM -15.5870 -47.8250 239° Southwest 277 319 14,100 -1,862 Descending FlightAware ADS-B
Fri 03:23:21 PM -15.6030 -47.8510 237° Southwest 272 313 13,800 -1,125 Descending FlightAware ADS-B
Fri 03:24:33 PM -15.6510 -47.9310 238° Southwest 266 306 12,300 -1,222 Descending FlightAware ADS-B
Fri 03:25:09 PM -15.6740 -47.9700 239° Southwest 264 304 11,600 -1,109 Descending FlightAware ADS-B
Fri 03:26:05 PM -15.7080 -48.0320 240° Southwest 255 293 10,600 -1,100 Descending FlightAware ADS-B
Fri 03:27:09 PM -15.7430 -48.1000 242° Southwest 250 288 9,400 -1,109 Descending FlightAware ADS-B
Fri 03:27:37 PM -15.7580 -48.1290 242° Southwest 249 287 8,900 -1,034 Descending FlightAware ADS-B
Fri 03:28:07 PM -15.7810 -48.1530 225° Southwest 247 284 8,400 -1,200 Descending FlightAware ADS-B
Fri 03:28:37 PM -15.8150 -48.1600 191° South 242 278 7,700 -1,308 Descending FlightAware ADS-B
Fri 03:29:25 PM -15.8540 -48.1280 142° Southeast 220 253 6,700 -951 Descending FlightAware ADS-B
Fri 03:29:59 PM -15.8710 -48.1000 122° Southeast 194 223 6,400 -794 Descending FlightAware ADS-B
Fri 03:30:33 PM -15.8790 -48.0710 106° East 175 201 5,800 -1,125 Descending FlightAware ADS-B
Fri 03:30:47 PM -15.8810 -48.0590 100° East 172 198 5,500 -429 Descending FlightAware ADS-B
Fri 03:31:15 PM -15.8820 -48.0400 93° East 172 198 5,500 -730 Level FlightAware ADS-B
Fri 03:32:01 PM -15.8790 -48.0060 85° East 133 153 4,600 -750 Descending FlightAware ADS-B
Fri 03:32:35 PM -15.8780 -47.9870 87° East 131 151 4,500 -176 Descending FlightAware ADS-B
Fri 03:35:00 PM -15.8626 -47.9127 78° East  Level Estimated
Fri 03:36:00 PM -15.8626 -47.9127 128° Southeast  Level Estimated

Login

Don't have an account? Register now (free) for customized features, flight alerts, and more!